sensor_id;sensor_type;location;lat;lon;timestamp;pressure;altitude;pressure_sealevel;temperature
68745;BMP180;66104;45.456;11.064;2023-04-29T00:01:41;100575.40;;;15.50
68745;BMP180;66104;45.456;11.064;2023-04-29T00:04:18;100564.20;;;15.58
68745;BMP180;66104;45.456;11.064;2023-04-29T00:06:54;100556.80;;;15.60
68745;BMP180;66104;45.456;11.064;2023-04-29T00:09:31;100562.00;;;15.50
68745;BMP180;66104;45.456;11.064;2023-04-29T00:12:09;100556.40;;;15.40
68745;BMP180;66104;45.456;11.064;2023-04-29T00:14:46;100558.60;;;15.40
68745;BMP180;66104;45.456;11.064;2023-04-29T00:17:23;100569.40;;;15.40
68745;BMP180;66104;45.456;11.064;2023-04-29T00:19:59;100561.00;;;15.40
68745;BMP180;66104;45.456;11.064;2023-04-29T00:22:36;100549.00;;;15.46
68745;BMP180;66104;45.456;11.064;2023-04-29T00:25:17;100542.80;;;15.50
68745;BMP180;66104;45.456;11.064;2023-04-29T00:27:53;100542.40;;;15.50
68745;BMP180;66104;45.456;11.064;2023-04-29T00:30:29;100541.80;;;15.40
68745;BMP180;66104;45.456;11.064;2023-04-29T00:33:06;100553.60;;;15.34
68745;BMP180;66104;45.456;11.064;2023-04-29T00:35:43;100544.20;;;15.30
68745;BMP180;66104;45.456;11.064;2023-04-29T00:38:20;100532.40;;;15.10
68745;BMP180;66104;45.456;11.064;2023-04-29T00:40:57;100532.60;;;15.00
68745;BMP180;66104;45.456;11.064;2023-04-29T00:43:34;100548.40;;;15.00
68745;BMP180;66104;45.456;11.064;2023-04-29T00:46:10;100553.00;;;15.00
68745;BMP180;66104;45.456;11.064;2023-04-29T00:48:46;100553.40;;;15.00
68745;BMP180;66104;45.456;11.064;2023-04-29T00:51:22;100544.40;;;15.00
68745;BMP180;66104;45.456;11.064;2023-04-29T00:53:58;100550.20;;;14.94
68745;BMP180;66104;45.456;11.064;2023-04-29T00:56:36;100564.40;;;14.90
68745;BMP180;66104;45.456;11.064;2023-04-29T00:59:15;100566.80;;;14.90
68745;BMP180;66104;45.456;11.064;2023-04-29T01:01:51;100558.00;;;15.00
68745;BMP180;66104;45.456;11.064;2023-04-29T01:04:28;100545.00;;;15.02
68745;BMP180;66104;45.456;11.064;2023-04-29T01:07:14;100545.20;;;15.10
68745;BMP180;66104;45.456;11.064;2023-04-29T01:10:05;100556.20;;;15.20
68745;BMP180;66104;45.456;11.064;2023-04-29T01:12:49;100552.40;;;15.20
68745;BMP180;66104;45.456;11.064;2023-04-29T01:15:44;100543.00;;;15.20
68745;BMP180;66104;45.456;11.064;2023-04-29T01:18:33;100548.20;;;15.22
68745;BMP180;66104;45.456;11.064;2023-04-29T01:21:12;100545.40;;;15.30
68745;BMP180;66104;45.456;11.064;2023-04-29T01:23:50;100537.40;;;15.30
68745;BMP180;66104;45.456;11.064;2023-04-29T01:26:34;100527.00;;;15.30
68745;BMP180;66104;45.456;11.064;2023-04-29T01:29:49;100528.40;;;15.30
68745;BMP180;66104;45.456;11.064;2023-04-29T01:32:35;100532.80;;;15.30
68745;BMP180;66104;45.456;11.064;2023-04-29T01:38:25;100533.40;;;15.20
68745;BMP180;66104;45.456;11.064;2023-04-29T01:41:17;100528.20;;;15.10
68745;BMP180;66104;45.456;11.064;2023-04-29T01:43:57;100533.40;;;15.02
68745;BMP180;66104;45.456;11.064;2023-04-29T01:46:35;100534.60;;;15.10
68745;BMP180;66104;45.456;11.064;2023-04-29T01:49:14;100518.40;;;15.10
68745;BMP180;66104;45.456;11.064;2023-04-29T01:51:50;100519.60;;;15.10
68745;BMP180;66104;45.456;11.064;2023-04-29T01:54:26;100513.60;;;15.10
68745;BMP180;66104;45.456;11.064;2023-04-29T01:57:03;100518.20;;;15.10
68745;BMP180;66104;45.456;11.064;2023-04-29T01:59:58;100502.40;;;15.00
68745;BMP180;66104;45.456;11.064;2023-04-29T02:02:35;100511.20;;;15.00
68745;BMP180;66104;45.456;11.064;2023-04-29T02:05:29;100520.20;;;15.10
68745;BMP180;66104;45.456;11.064;2023-04-29T02:08:07;100510.60;;;15.10
68745;BMP180;66104;45.456;11.064;2023-04-29T02:10:55;100502.80;;;15.00
68745;BMP180;66104;45.456;11.064;2023-04-29T02:13:40;100503.20;;;15.06
68745;BMP180;66104;45.456;11.064;2023-04-29T02:16:18;100520.20;;;15.10
68745;BMP180;66104;45.456;11.064;2023-04-29T02:19:03;100521.20;;;15.10
68745;BMP180;66104;45.456;11.064;2023-04-29T02:21:44;100508.60;;;15.10
68745;BMP180;66104;45.456;11.064;2023-04-29T02:24:23;100498.20;;;15.10
68745;BMP180;66104;45.456;11.064;2023-04-29T02:26:59;100485.60;;;15.10
68745;BMP180;66104;45.456;11.064;2023-04-29T02:29:38;100493.20;;;15.10
68745;BMP180;66104;45.456;11.064;2023-04-29T02:32:14;100510.00;;;15.20
68745;BMP180;66104;45.456;11.064;2023-04-29T02:34:53;100517.40;;;15.20
68745;BMP180;66104;45.456;11.064;2023-04-29T02:37:29;100514.60;;;15.20
68745;BMP180;66104;45.456;11.064;2023-04-29T02:40:09;100511.20;;;15.20
68745;BMP180;66104;45.456;11.064;2023-04-29T02:42:48;100502.00;;;15.20
68745;BMP180;66104;45.456;11.064;2023-04-29T02:45:25;100493.80;;;15.20
68745;BMP180;66104;45.456;11.064;2023-04-29T02:48:01;100483.40;;;15.20
68745;BMP180;66104;45.456;11.064;2023-04-29T02:50:37;100485.20;;;15.12
68745;BMP180;66104;45.456;11.064;2023-04-29T02:53:13;100484.60;;;15.16
68745;BMP180;66104;45.456;11.064;2023-04-29T02:55:49;100490.80;;;15.20
68745;BMP180;66104;45.456;11.064;2023-04-29T02:58:25;100491.80;;;15.20
68745;BMP180;66104;45.456;11.064;2023-04-29T03:01:06;100503.80;;;15.20
68745;BMP180;66104;45.456;11.064;2023-04-29T03:03:43;100517.60;;;15.16
68745;BMP180;66104;45.456;11.064;2023-04-29T03:06:20;100525.00;;;15.10
68745;BMP180;66104;45.456;11.064;2023-04-29T03:08:57;100533.00;;;15.10
68745;BMP180;66104;45.456;11.064;2023-04-29T03:11:33;100523.40;;;15.00
68745;BMP180;66104;45.456;11.064;2023-04-29T03:14:10;100529.00;;;15.00
68745;BMP180;66104;45.456;11.064;2023-04-29T03:16:47;100530.80;;;15.00
68745;BMP180;66104;45.456;11.064;2023-04-29T03:19:22;100521.20;;;15.00
68745;BMP180;66104;45.456;11.064;2023-04-29T03:21:59;100519.00;;;15.00
68745;BMP180;66104;45.456;11.064;2023-04-29T03:24:35;100508.00;;;15.08
68745;BMP180;66104;45.456;11.064;2023-04-29T03:27:11;100503.60;;;15.10
68745;BMP180;66104;45.456;11.064;2023-04-29T03:29:48;100500.00;;;15.10
68745;BMP180;66104;45.456;11.064;2023-04-29T03:32:26;100505.60;;;15.18
68745;BMP180;66104;45.456;11.064;2023-04-29T03:35:03;100503.20;;;15.20
68745;BMP180;66104;45.456;11.064;2023-04-29T03:38:00;100514.20;;;15.12
68745;BMP180;66104;45.456;11.064;2023-04-29T03:40:38;100521.40;;;15.10
68745;BMP180;66104;45.456;11.064;2023-04-29T03:43:15;100519.20;;;15.10
68745;BMP180;66104;45.456;11.064;2023-04-29T03:45:52;100515.60;;;15.10
68745;BMP180;66104;45.456;11.064;2023-04-29T03:48:29;100508.80;;;15.10
68745;BMP180;66104;45.456;11.064;2023-04-29T03:51:05;100505.20;;;15.20
68745;BMP180;66104;45.456;11.064;2023-04-29T03:53:42;100508.60;;;15.16
68745;BMP180;66104;45.456;11.064;2023-04-29T03:56:19;100510.20;;;15.20
68745;BMP180;66104;45.456;11.064;2023-04-29T03:58:56;100510.20;;;15.20
68745;BMP180;66104;45.456;11.064;2023-04-29T04:01:32;100503.60;;;15.30
68745;BMP180;66104;45.456;11.064;2023-04-29T04:04:08;100499.40;;;15.30
68745;BMP180;66104;45.456;11.064;2023-04-29T04:06:49;100494.80;;;15.30
68745;BMP180;66104;45.456;11.064;2023-04-29T04:09:27;100500.40;;;15.30
68745;BMP180;66104;45.456;11.064;2023-04-29T04:12:06;100495.80;;;15.30
68745;BMP180;66104;45.456;11.064;2023-04-29T04:14:44;100496.20;;;15.38
68745;BMP180;66104;45.456;11.064;2023-04-29T04:17:21;100504.60;;;15.30
68745;BMP180;66104;45.456;11.064;2023-04-29T04:19:58;100504.00;;;15.30
68745;BMP180;66104;45.456;11.064;2023-04-29T04:22:34;100515.00;;;15.30
68745;BMP180;66104;45.456;11.064;2023-04-29T04:25:23;100516.80;;;15.22
68745;BMP180;66104;45.456;11.064;2023-04-29T04:28:03;100512.20;;;15.20
68745;BMP180;66104;45.456;11.064;2023-04-29T04:31:03;100500.40;;;15.20
68745;BMP180;66104;45.456;11.064;2023-04-29T04:33:41;100494.00;;;15.20
68745;BMP180;66104;45.456;11.064;2023-04-29T04:36:18;100502.40;;;15.20
68745;BMP180;66104;45.456;11.064;2023-04-29T04:38:55;100505.00;;;15.20
68745;BMP180;66104;45.456;11.064;2023-04-29T04:41:32;100507.40;;;15.20
68745;BMP180;66104;45.456;11.064;2023-04-29T04:44:09;100505.80;;;15.20
68745;BMP180;66104;45.456;11.064;2023-04-29T04:47:05;100508.40;;;15.20
68745;BMP180;66104;45.456;11.064;2023-04-29T04:49:57;100511.20;;;15.20
68745;BMP180;66104;45.456;11.064;2023-04-29T04:52:33;100515.60;;;15.20
68745;BMP180;66104;45.456;11.064;2023-04-29T04:55:28;100517.20;;;15.20
68745;BMP180;66104;45.456;11.064;2023-04-29T04:58:06;100519.00;;;15.30
68745;BMP180;66104;45.456;11.064;2023-04-29T05:00:46;100516.80;;;15.30
68745;BMP180;66104;45.456;11.064;2023-04-29T05:03:23;100519.60;;;15.30
68745;BMP180;66104;45.456;11.064;2023-04-29T05:05:59;100518.00;;;15.24
68745;BMP180;66104;45.456;11.064;2023-04-29T05:08:35;100508.40;;;15.20
68745;BMP180;66104;45.456;11.064;2023-04-29T05:11:19;100510.40;;;15.20
68745;BMP180;66104;45.456;11.064;2023-04-29T05:14:09;100519.80;;;15.20
68745;BMP180;66104;45.456;11.064;2023-04-29T05:16:45;100521.40;;;15.10
68745;BMP180;66104;45.456;11.064;2023-04-29T05:19:22;100525.60;;;15.10
68745;BMP180;66104;45.456;11.064;2023-04-29T05:21:59;100530.40;;;15.10
68745;BMP180;66104;45.456;11.064;2023-04-29T05:24:35;100524.20;;;15.00
68745;BMP180;66104;45.456;11.064;2023-04-29T05:27:11;100523.60;;;15.10
68745;BMP180;66104;45.456;11.064;2023-04-29T05:29:48;100533.40;;;15.04
68745;BMP180;66104;45.456;11.064;2023-04-29T05:32:25;100535.40;;;15.00
68745;BMP180;66104;45.456;11.064;2023-04-29T05:35:01;100529.20;;;15.00
68745;BMP180;66104;45.456;11.064;2023-04-29T05:37:40;100535.60;;;15.00
68745;BMP180;66104;45.456;11.064;2023-04-29T05:40:39;100541.40;;;14.90
68745;BMP180;66104;45.456;11.064;2023-04-29T05:43:39;100543.80;;;14.90
68745;BMP180;66104;45.456;11.064;2023-04-29T05:46:19;100534.60;;;14.90
68745;BMP180;66104;45.456;11.064;2023-04-29T05:48:55;100536.20;;;14.90
68745;BMP180;66104;45.456;11.064;2023-04-29T05:51:32;100539.40;;;14.94
68745;BMP180;66104;45.456;11.064;2023-04-29T05:54:08;100540.40;;;15.00
68745;BMP180;66104;45.456;11.064;2023-04-29T05:56:46;100537.40;;;15.00
68745;BMP180;66104;45.456;11.064;2023-04-29T05:59:23;100543.20;;;15.00
68745;BMP180;66104;45.456;11.064;2023-04-29T06:02:01;100543.80;;;15.10
68745;BMP180;66104;45.456;11.064;2023-04-29T06:04:38;100547.00;;;15.10
68745;BMP180;66104;45.456;11.064;2023-04-29T06:07:26;100553.80;;;15.20
68745;BMP180;66104;45.456;11.064;2023-04-29T06:10:10;100558.20;;;15.22
68745;BMP180;66104;45.456;11.064;2023-04-29T06:12:50;100555.40;;;15.30
68745;BMP180;66104;45.456;11.064;2023-04-29T06:15:26;100552.40;;;15.40
68745;BMP180;66104;45.456;11.064;2023-04-29T06:18:03;100550.00;;;15.40
68745;BMP180;66104;45.456;11.064;2023-04-29T06:20:40;100549.20;;;15.50
68745;BMP180;66104;45.456;11.064;2023-04-29T06:23:16;100552.60;;;15.50
68745;BMP180;66104;45.456;11.064;2023-04-29T06:25:53;100568.80;;;15.50
68745;BMP180;66104;45.456;11.064;2023-04-29T06:28:30;100572.40;;;15.50
68745;BMP180;66104;45.456;11.064;2023-04-29T06:31:06;100572.40;;;15.50
68745;BMP180;66104;45.456;11.064;2023-04-29T06:33:43;100572.20;;;15.52
68745;BMP180;66104;45.456;11.064;2023-04-29T06:36:19;100576.40;;;15.60
68745;BMP180;66104;45.456;11.064;2023-04-29T06:39:24;100571.60;;;15.70
68745;BMP180;66104;45.456;11.064;2023-04-29T06:42:32;100565.00;;;15.70
68745;BMP180;66104;45.456;11.064;2023-04-29T06:45:29;100574.20;;;15.78
68745;BMP180;66104;45.456;11.064;2023-04-29T06:48:16;100577.00;;;15.80
68745;BMP180;66104;45.456;11.064;2023-04-29T06:50:57;100576.00;;;15.80
68745;BMP180;66104;45.456;11.064;2023-04-29T06:53:34;100576.20;;;15.80
68745;BMP180;66104;45.456;11.064;2023-04-29T06:56:12;100572.40;;;15.90
68745;BMP180;66104;45.456;11.064;2023-04-29T06:58:49;100560.80;;;15.90
68745;BMP180;66104;45.456;11.064;2023-04-29T07:01:26;100563.40;;;16.00
68745;BMP180;66104;45.456;11.064;2023-04-29T07:04:02;100564.20;;;16.06
68745;BMP180;66104;45.456;11.064;2023-04-29T07:06:39;100561.20;;;16.10
68745;BMP180;66104;45.456;11.064;2023-04-29T07:09:19;100554.60;;;16.10
68745;BMP180;66104;45.456;11.064;2023-04-29T07:11:57;100552.60;;;16.10
68745;BMP180;66104;45.456;11.064;2023-04-29T07:14:33;100554.40;;;16.10
68745;BMP180;66104;45.456;11.064;2023-04-29T07:17:15;100554.40;;;16.10
68745;BMP180;66104;45.456;11.064;2023-04-29T07:19:53;100551.80;;;16.10
68745;BMP180;66104;45.456;11.064;2023-04-29T07:22:29;100541.60;;;16.20
68745;BMP180;66104;45.456;11.064;2023-04-29T07:25:08;100543.00;;;16.20
68745;BMP180;66104;45.456;11.064;2023-04-29T07:27:45;100539.40;;;16.30
68745;BMP180;66104;45.456;11.064;2023-04-29T07:30:20;100539.80;;;16.34
68745;BMP180;66104;45.456;11.064;2023-04-29T07:32:58;100543.00;;;16.40
68745;BMP180;66104;45.456;11.064;2023-04-29T07:35:35;100546.40;;;16.40
68745;BMP180;66104;45.456;11.064;2023-04-29T07:38:12;100552.60;;;16.48
68745;BMP180;66104;45.456;11.064;2023-04-29T07:40:48;100548.40;;;16.50
68745;BMP180;66104;45.456;11.064;2023-04-29T07:43:25;100547.60;;;16.60
68745;BMP180;66104;45.456;11.064;2023-04-29T07:46:01;100548.60;;;16.70
68745;BMP180;66104;45.456;11.064;2023-04-29T07:48:41;100551.80;;;16.80
68745;BMP180;66104;45.456;11.064;2023-04-29T07:51:18;100552.80;;;16.82
68745;BMP180;66104;45.456;11.064;2023-04-29T07:53:55;100561.80;;;16.90
68745;BMP180;66104;45.456;11.064;2023-04-29T07:56:32;100568.40;;;17.00
68745;BMP180;66104;45.456;11.064;2023-04-29T07:59:08;100575.40;;;17.10
68745;BMP180;66104;45.456;11.064;2023-04-29T08:01:44;100573.20;;;17.10
68745;BMP180;66104;45.456;11.064;2023-04-29T08:04:22;100571.80;;;17.20
68745;BMP180;66104;45.456;11.064;2023-04-29T08:07:25;100574.60;;;17.20
68745;BMP180;66104;45.456;11.064;2023-04-29T08:10:05;100580.00;;;17.26
68745;BMP180;66104;45.456;11.064;2023-04-29T08:12:45;100583.20;;;17.30
68745;BMP180;66104;45.456;11.064;2023-04-29T08:15:23;100581.60;;;17.34
68745;BMP180;66104;45.456;11.064;2023-04-29T08:17:59;100584.40;;;17.40
68745;BMP180;66104;45.456;11.064;2023-04-29T08:20:36;100586.00;;;17.40
68745;BMP180;66104;45.456;11.064;2023-04-29T08:23:13;100588.20;;;17.50
68745;BMP180;66104;45.456;11.064;2023-04-29T08:25:49;100589.40;;;17.52
68745;BMP180;66104;45.456;11.064;2023-04-29T08:28:29;100594.40;;;17.60
68745;BMP180;66104;45.456;11.064;2023-04-29T08:31:06;100590.80;;;17.70
68745;BMP180;66104;45.456;11.064;2023-04-29T08:33:44;100590.60;;;17.80
68745;BMP180;66104;45.456;11.064;2023-04-29T08:36:20;100593.20;;;17.80
68745;BMP180;66104;45.456;11.064;2023-04-29T08:38:56;100597.40;;;17.90
68745;BMP180;66104;45.456;11.064;2023-04-29T08:41:35;100601.00;;;18.00
68745;BMP180;66104;45.456;11.064;2023-04-29T08:44:11;100599.00;;;18.10
68745;BMP180;66104;45.456;11.064;2023-04-29T08:46:49;100595.80;;;18.10
68745;BMP180;66104;45.456;11.064;2023-04-29T08:49:26;100597.20;;;18.20
68745;BMP180;66104;45.456;11.064;2023-04-29T08:52:04;100597.00;;;18.20
68745;BMP180;66104;45.456;11.064;2023-04-29T08:54:41;100595.80;;;18.30
68745;BMP180;66104;45.456;11.064;2023-04-29T08:57:19;100594.60;;;18.30
68745;BMP180;66104;45.456;11.064;2023-04-29T08:59:56;100599.60;;;18.34
68745;BMP180;66104;45.456;11.064;2023-04-29T09:02:35;100594.20;;;18.40
68745;BMP180;66104;45.456;11.064;2023-04-29T09:05:14;100591.00;;;18.50
68745;BMP180;66104;45.456;11.064;2023-04-29T09:07:51;100586.60;;;18.58
68745;BMP180;66104;45.456;11.064;2023-04-29T09:10:29;100583.00;;;18.60
68745;BMP180;66104;45.456;11.064;2023-04-29T09:13:05;100590.40;;;18.60
68745;BMP180;66104;45.456;11.064;2023-04-29T09:15:42;100585.80;;;18.56
68745;BMP180;66104;45.456;11.064;2023-04-29T09:18:46;100587.40;;;18.60
68745;BMP180;66104;45.456;11.064;2023-04-29T09:21:25;100583.20;;;18.60
68745;BMP180;66104;45.456;11.064;2023-04-29T09:24:03;100588.40;;;18.62
68745;BMP180;66104;45.456;11.064;2023-04-29T09:26:47;100584.20;;;18.70
68745;BMP180;66104;45.456;11.064;2023-04-29T09:29:24;100583.00;;;18.80
68745;BMP180;66104;45.456;11.064;2023-04-29T09:32:00;100579.00;;;18.90
68745;BMP180;66104;45.456;11.064;2023-04-29T09:34:53;100578.80;;;18.90
68745;BMP180;66104;45.456;11.064;2023-04-29T09:37:31;100578.00;;;18.90
68745;BMP180;66104;45.456;11.064;2023-04-29T09:40:30;100579.20;;;18.90
68745;BMP180;66104;45.456;11.064;2023-04-29T09:43:20;100574.80;;;18.92
68745;BMP180;66104;45.456;11.064;2023-04-29T09:45:57;100569.80;;;19.00
68745;BMP180;66104;45.456;11.064;2023-04-29T09:48:37;100568.60;;;19.00
68745;BMP180;66104;45.456;11.064;2023-04-29T09:51:13;100571.80;;;19.00
68745;BMP180;66104;45.456;11.064;2023-04-29T09:53:49;100569.60;;;19.04
68745;BMP180;66104;45.456;11.064;2023-04-29T09:56:26;100562.20;;;19.10
68745;BMP180;66104;45.456;11.064;2023-04-29T09:59:11;100566.40;;;19.10
68745;BMP180;66104;45.456;11.064;2023-04-29T10:01:48;100565.00;;;19.10
68745;BMP180;66104;45.456;11.064;2023-04-29T10:04:26;100562.40;;;19.10
68745;BMP180;66104;45.456;11.064;2023-04-29T10:07:04;100559.40;;;19.10
68745;BMP180;66104;45.456;11.064;2023-04-29T10:09:43;100562.40;;;19.10
68745;BMP180;66104;45.456;11.064;2023-04-29T10:12:22;100569.00;;;19.10
68745;BMP180;66104;45.456;11.064;2023-04-29T10:15:04;100565.40;;;19.20
68745;BMP180;66104;45.456;11.064;2023-04-29T10:17:48;100559.80;;;19.16
68745;BMP180;66104;45.456;11.064;2023-04-29T10:20:26;100558.80;;;19.20
68745;BMP180;66104;45.456;11.064;2023-04-29T10:23:04;100552.00;;;19.30
68745;BMP180;66104;45.456;11.064;2023-04-29T10:25:43;100551.80;;;19.40
68745;BMP180;66104;45.456;11.064;2023-04-29T10:28:19;100552.20;;;19.44
68745;BMP180;66104;45.456;11.064;2023-04-29T10:31:02;100541.40;;;19.40
68745;BMP180;66104;45.456;11.064;2023-04-29T10:33:42;100540.80;;;19.40
68745;BMP180;66104;45.456;11.064;2023-04-29T10:36:20;100540.20;;;19.50
68745;BMP180;66104;45.456;11.064;2023-04-29T10:39:02;100541.40;;;19.60
68745;BMP180;66104;45.456;11.064;2023-04-29T10:41:44;100535.40;;;19.70
68745;BMP180;66104;45.456;11.064;2023-04-29T10:44:22;100520.80;;;19.72
68745;BMP180;66104;45.456;11.064;2023-04-29T10:47:23;100512.40;;;19.80
68745;BMP180;66104;45.456;11.064;2023-04-29T10:50:11;100507.60;;;19.90
68745;BMP180;66104;45.456;11.064;2023-04-29T10:53:00;100509.00;;;19.90
68745;BMP180;66104;45.456;11.064;2023-04-29T10:55:39;100503.20;;;19.98
68745;BMP180;66104;45.456;11.064;2023-04-29T10:58:50;100501.80;;;20.00
68745;BMP180;66104;45.456;11.064;2023-04-29T11:05:04;100505.20;;;20.14
68745;BMP180;66104;45.456;11.064;2023-04-29T11:07:34;100505.00;;;20.20
68745;BMP180;66104;45.456;11.064;2023-04-29T11:10:14;100510.40;;;20.28
68745;BMP180;66104;45.456;11.064;2023-04-29T11:13:22;100502.80;;;20.40
68745;BMP180;66104;45.456;11.064;2023-04-29T11:16:09;100500.20;;;20.50
68745;BMP180;66104;45.456;11.064;2023-04-29T11:19:09;100491.40;;;20.50
68745;BMP180;66104;45.456;11.064;2023-04-29T11:21:46;100494.20;;;20.50
68745;BMP180;66104;45.456;11.064;2023-04-29T11:24:23;100497.20;;;20.60
68745;BMP180;66104;45.456;11.064;2023-04-29T11:27:04;100496.60;;;20.60
68745;BMP180;66104;45.456;11.064;2023-04-29T11:29:42;100494.20;;;20.60
68745;BMP180;66104;45.456;11.064;2023-04-29T11:32:23;100494.80;;;20.60
68745;BMP180;66104;45.456;11.064;2023-04-29T11:35:08;100495.20;;;20.70
68745;BMP180;66104;45.456;11.064;2023-04-29T11:37:46;100499.80;;;20.76
68745;BMP180;66104;45.456;11.064;2023-04-29T11:40:23;100497.60;;;20.70
68745;BMP180;66104;45.456;11.064;2023-04-29T11:43:00;100491.40;;;20.76
68745;BMP180;66104;45.456;11.064;2023-04-29T11:45:43;100487.20;;;20.80
68745;BMP180;66104;45.456;11.064;2023-04-29T11:48:24;100485.00;;;20.90
68745;BMP180;66104;45.456;11.064;2023-04-29T11:51:01;100484.80;;;21.00
68745;BMP180;66104;45.456;11.064;2023-04-29T11:53:38;100485.80;;;21.00
68745;BMP180;66104;45.456;11.064;2023-04-29T11:56:15;100481.20;;;21.10
68745;BMP180;66104;45.456;11.064;2023-04-29T11:58:54;100477.80;;;21.20
68745;BMP180;66104;45.456;11.064;2023-04-29T12:01:31;100482.20;;;21.30
68745;BMP180;66104;45.456;11.064;2023-04-29T12:04:09;100480.00;;;21.40
68745;BMP180;66104;45.456;11.064;2023-04-29T12:06:46;100484.40;;;21.50
68745;BMP180;66104;45.456;11.064;2023-04-29T12:09:27;100485.40;;;21.50
68745;BMP180;66104;45.456;11.064;2023-04-29T12:12:03;100483.40;;;21.50
68745;BMP180;66104;45.456;11.064;2023-04-29T12:14:41;100481.00;;;21.54
68745;BMP180;66104;45.456;11.064;2023-04-29T12:17:18;100481.80;;;21.60
68745;BMP180;66104;45.456;11.064;2023-04-29T12:19:55;100488.60;;;21.70
68745;BMP180;66104;45.456;11.064;2023-04-29T12:22:36;100489.60;;;21.70
68745;BMP180;66104;45.456;11.064;2023-04-29T12:25:16;100487.60;;;21.70
68745;BMP180;66104;45.456;11.064;2023-04-29T12:28:00;100482.80;;;21.80
68745;BMP180;66104;45.456;11.064;2023-04-29T12:30:41;100484.00;;;21.80
68745;BMP180;66104;45.456;11.064;2023-04-29T12:33:22;100484.60;;;21.82
68745;BMP180;66104;45.456;11.064;2023-04-29T12:36:00;100480.20;;;21.90
68745;BMP180;66104;45.456;11.064;2023-04-29T12:38:36;100488.40;;;21.90
68745;BMP180;66104;45.456;11.064;2023-04-29T12:41:13;100487.80;;;21.90
68745;BMP180;66104;45.456;11.064;2023-04-29T12:43:54;100482.20;;;21.90
68745;BMP180;66104;45.456;11.064;2023-04-29T12:46:35;100477.20;;;21.90
68745;BMP180;66104;45.456;11.064;2023-04-29T12:49:12;100475.20;;;21.90
68745;BMP180;66104;45.456;11.064;2023-04-29T12:51:49;100468.40;;;22.00
68745;BMP180;66104;45.456;11.064;2023-04-29T12:54:26;100464.60;;;22.00
68745;BMP180;66104;45.456;11.064;2023-04-29T12:57:02;100456.40;;;22.00
68745;BMP180;66104;45.456;11.064;2023-04-29T12:59:39;100453.20;;;22.00
68745;BMP180;66104;45.456;11.064;2023-04-29T13:02:16;100452.80;;;22.10
68745;BMP180;66104;45.456;11.064;2023-04-29T13:04:52;100445.60;;;22.10
68745;BMP180;66104;45.456;11.064;2023-04-29T13:07:30;100441.80;;;22.20
68745;BMP180;66104;45.456;11.064;2023-04-29T13:10:08;100439.00;;;22.20
68745;BMP180;66104;45.456;11.064;2023-04-29T13:12:48;100432.00;;;22.20
68745;BMP180;66104;45.456;11.064;2023-04-29T13:15:24;100426.80;;;22.20
68745;BMP180;66104;45.456;11.064;2023-04-29T13:18:01;100426.80;;;22.10
68745;BMP180;66104;45.456;11.064;2023-04-29T13:20:39;100424.00;;;22.00
68745;BMP180;66104;45.456;11.064;2023-04-29T13:23:15;100424.60;;;22.00
68745;BMP180;66104;45.456;11.064;2023-04-29T13:25:53;100426.40;;;22.00
68745;BMP180;66104;45.456;11.064;2023-04-29T13:28:33;100422.60;;;22.00
68745;BMP180;66104;45.456;11.064;2023-04-29T13:31:12;100417.60;;;22.00
68745;BMP180;66104;45.456;11.064;2023-04-29T13:33:49;100417.80;;;22.02
68745;BMP180;66104;45.456;11.064;2023-04-29T13:36:28;100406.60;;;22.10
68745;BMP180;66104;45.456;11.064;2023-04-29T13:39:05;100407.40;;;22.10
68745;BMP180;66104;45.456;11.064;2023-04-29T13:41:42;100410.80;;;22.10
68745;BMP180;66104;45.456;11.064;2023-04-29T13:44:19;100411.00;;;22.06
68745;BMP180;66104;45.456;11.064;2023-04-29T13:47:12;100413.60;;;22.10
68745;BMP180;66104;45.456;11.064;2023-04-29T13:49:57;100413.40;;;22.04
68745;BMP180;66104;45.456;11.064;2023-04-29T13:52:37;100407.20;;;22.00
68745;BMP180;66104;45.456;11.064;2023-04-29T13:55:20;100402.20;;;22.00
68745;BMP180;66104;45.456;11.064;2023-04-29T13:58:00;100402.60;;;22.00
68745;BMP180;66104;45.456;11.064;2023-04-29T14:00:40;100397.80;;;22.00
68745;BMP180;66104;45.456;11.064;2023-04-29T14:03:20;100393.60;;;21.92
68745;BMP180;66104;45.456;11.064;2023-04-29T14:05:56;100392.60;;;21.94
68745;BMP180;66104;45.456;11.064;2023-04-29T14:08:33;100391.80;;;21.92
68745;BMP180;66104;45.456;11.064;2023-04-29T14:11:10;100393.00;;;21.94
68745;BMP180;66104;45.456;11.064;2023-04-29T14:13:47;100392.20;;;22.00
68745;BMP180;66104;45.456;11.064;2023-04-29T14:16:24;100390.40;;;22.00
68745;BMP180;66104;45.456;11.064;2023-04-29T14:19:00;100394.80;;;22.10
68745;BMP180;66104;45.456;11.064;2023-04-29T14:21:37;100398.20;;;22.10
68745;BMP180;66104;45.456;11.064;2023-04-29T14:24:14;100401.60;;;22.10
68745;BMP180;66104;45.456;11.064;2023-04-29T14:26:51;100400.40;;;22.10
68745;BMP180;66104;45.456;11.064;2023-04-29T14:29:27;100398.00;;;22.10
68745;BMP180;66104;45.456;11.064;2023-04-29T14:32:04;100397.60;;;22.20
68745;BMP180;66104;45.456;11.064;2023-04-29T14:34:42;100400.80;;;22.20
68745;BMP180;66104;45.456;11.064;2023-04-29T14:37:19;100400.00;;;22.20
68745;BMP180;66104;45.456;11.064;2023-04-29T14:39:55;100398.00;;;22.20
68745;BMP180;66104;45.456;11.064;2023-04-29T14:42:31;100403.40;;;22.20
68745;BMP180;66104;45.456;11.064;2023-04-29T14:45:12;100400.40;;;22.10
68745;BMP180;66104;45.456;11.064;2023-04-29T14:47:48;100401.40;;;22.16
68745;BMP180;66104;45.456;11.064;2023-04-29T14:50:26;100404.60;;;22.10
68745;BMP180;66104;45.456;11.064;2023-04-29T14:53:05;100402.80;;;22.10
68745;BMP180;66104;45.456;11.064;2023-04-29T14:55:42;100401.20;;;22.12
68745;BMP180;66104;45.456;11.064;2023-04-29T14:58:18;100403.80;;;22.14
68745;BMP180;66104;45.456;11.064;2023-04-29T15:00:55;100399.80;;;22.16